sensor_id;sensor_type;location;lat;lon;timestamp;pressure;altitude;pressure_sealevel;temperature;humidity
54407;BME280;40313;50.308;30.374;2023-11-21T00:00:46;99153.00;;;-1.05;100.00
54407;BME280;40313;50.308;30.374;2023-11-21T00:03:13;99139.91;;;-1.38;100.00
54407;BME280;40313;50.308;30.374;2023-11-21T00:05:40;99141.75;;;-1.48;100.00
54407;BME280;40313;50.308;30.374;2023-11-21T00:08:08;99146.97;;;-1.54;100.00
54407;BME280;40313;50.308;30.374;2023-11-21T00:10:35;99146.19;;;-1.59;100.00
54407;BME280;40313;50.308;30.374;2023-11-21T00:13:03;99159.78;;;-1.55;100.00
54407;BME280;40313;50.308;30.374;2023-11-21T00:15:30;99163.19;;;-1.57;100.00
54407;BME280;40313;50.308;30.374;2023-11-21T00:17:59;99164.03;;;-1.56;100.00
54407;BME280;40313;50.308;30.374;2023-11-21T00:20:26;99164.19;;;-1.65;100.00
54407;BME280;40313;50.308;30.374;2023-11-21T00:22:53;99179.47;;;-1.62;100.00
54407;BME280;40313;50.308;30.374;2023-11-21T00:25:20;99187.19;;;-1.65;100.00
54407;BME280;40313;50.308;30.374;2023-11-21T00:27:47;99178.81;;;-1.75;100.00
54407;BME280;40313;50.308;30.374;2023-11-21T00:30:14;99201.75;;;-1.70;100.00
54407;BME280;40313;50.308;30.374;2023-11-21T00:32:41;99197.56;;;-1.76;100.00
54407;BME280;40313;50.308;30.374;2023-11-21T00:35:10;99195.94;;;-1.83;100.00
54407;BME280;40313;50.308;30.374;2023-11-21T00:37:37;99186.66;;;-1.89;100.00
54407;BME280;40313;50.308;30.374;2023-11-21T00:40:05;99163.09;;;-2.13;100.00
54407;BME280;40313;50.308;30.374;2023-11-21T00:42:32;99186.81;;;-2.00;100.00
54407;BME280;40313;50.308;30.374;2023-11-21T00:44:59;99199.56;;;-1.98;100.00
54407;BME280;40313;50.308;30.374;2023-11-21T00:47:26;99187.59;;;-1.98;100.00
54407;BME280;40313;50.308;30.374;2023-11-21T00:49:53;99195.34;;;-2.02;100.00
54407;BME280;40313;50.308;30.374;2023-11-21T00:52:21;99183.50;;;-2.08;100.00
54407;BME280;40313;50.308;30.374;2023-11-21T00:54:48;99186.88;;;-2.08;100.00
54407;BME280;40313;50.308;30.374;2023-11-21T00:57:15;99186.84;;;-2.06;100.00
54407;BME280;40313;50.308;30.374;2023-11-21T00:59:42;99176.69;;;-2.11;100.00
54407;BME280;40313;50.308;30.374;2023-11-21T01:02:08;99180.97;;;-2.11;100.00
54407;BME280;40313;50.308;30.374;2023-11-21T01:04:36;99196.22;;;-2.05;100.00
54407;BME280;40313;50.308;30.374;2023-11-21T01:07:03;99188.50;;;-2.00;100.00
54407;BME280;40313;50.308;30.374;2023-11-21T01:09:32;99182.59;;;-2.04;100.00
54407;BME280;40313;50.308;30.374;2023-11-21T01:11:59;99191.97;;;-2.03;100.00
54407;BME280;40313;50.308;30.374;2023-11-21T01:14:26;99196.19;;;-2.02;100.00
54407;BME280;40313;50.308;30.374;2023-11-21T01:16:53;99199.59;;;-2.00;100.00
54407;BME280;40313;50.308;30.374;2023-11-21T01:19:20;99201.28;;;-2.02;100.00
54407;BME280;40313;50.308;30.374;2023-11-21T01:21:47;99213.16;;;-1.98;100.00
54407;BME280;40313;50.308;30.374;2023-11-21T01:24:14;99206.41;;;-2.02;100.00
54407;BME280;40313;50.308;30.374;2023-11-21T01:26:42;99207.28;;;-2.01;100.00
54407;BME280;40313;50.308;30.374;2023-11-21T01:29:12;99214.97;;;-2.03;100.00
54407;BME280;40313;50.308;30.374;2023-11-21T01:31:38;99201.41;;;-2.11;100.00
54407;BME280;40313;50.308;30.374;2023-11-21T01:34:08;99198.88;;;-2.13;100.00
54407;BME280;40313;50.308;30.374;2023-11-21T01:36:34;99208.19;;;-2.07;100.00
54407;BME280;40313;50.308;30.374;2023-11-21T01:39:02;99207.38;;;-2.12;100.00
54407;BME280;40313;50.308;30.374;2023-11-21T01:41:33;99196.41;;;-2.20;100.00
54407;BME280;40313;50.308;30.374;2023-11-21T01:44:02;99203.22;;;-2.21;100.00
54407;BME280;40313;50.308;30.374;2023-11-21T01:46:28;99212.56;;;-2.18;100.00
54407;BME280;40313;50.308;30.374;2023-11-21T01:48:56;99218.50;;;-2.16;100.00
54407;BME280;40313;50.308;30.374;2023-11-21T01:51:23;99217.69;;;-2.18;100.00
54407;BME280;40313;50.308;30.374;2023-11-21T01:53:52;99196.47;;;-2.27;100.00
54407;BME280;40313;50.308;30.374;2023-11-21T01:56:19;99203.28;;;-2.24;100.00
54407;BME280;40313;50.308;30.374;2023-11-21T01:58:46;99208.41;;;-2.26;100.00
54407;BME280;40313;50.308;30.374;2023-11-21T02:01:15;99213.44;;;-2.19;100.00
54407;BME280;40313;50.308;30.374;2023-11-21T02:03:44;99206.56;;;-2.17;100.00
54407;BME280;40313;50.308;30.374;2023-11-21T02:06:11;99212.59;;;-2.20;100.00
54407;BME280;40313;50.308;30.374;2023-11-21T02:08:38;99221.91;;;-2.17;100.00
54407;BME280;40313;50.308;30.374;2023-11-21T02:11:08;99221.91;;;-2.17;100.00
54407;BME280;40313;50.308;30.374;2023-11-21T02:13:38;99231.38;;;-2.24;100.00
54407;BME280;40313;50.308;30.374;2023-11-21T02:16:09;99233.13;;;-2.29;100.00
54407;BME280;40313;50.308;30.374;2023-11-21T02:18:39;99225.53;;;-2.37;100.00
54407;BME280;40313;50.308;30.374;2023-11-21T02:21:07;99226.50;;;-2.49;100.00
54407;BME280;40313;50.308;30.374;2023-11-21T02:23:37;99235.97;;;-2.57;100.00
54407;BME280;40313;50.308;30.374;2023-11-21T02:26:07;99230.94;;;-2.68;100.00
54407;BME280;40313;50.308;30.374;2023-11-21T02:28:35;99245.53;;;-2.81;100.00
54407;BME280;40313;50.308;30.374;2023-11-21T02:31:01;99226.97;;;-3.01;100.00
54407;BME280;40313;50.308;30.374;2023-11-21T02:33:29;99244.03;;;-3.06;100.00
54407;BME280;40313;50.308;30.374;2023-11-21T02:35:59;99219.56;;;-3.34;100.00
54407;BME280;40313;50.308;30.374;2023-11-21T02:38:26;99242.47;;;-3.29;100.00
54407;BME280;40313;50.308;30.374;2023-11-21T02:40:54;99249.31;;;-3.33;100.00
54407;BME280;40313;50.308;30.374;2023-11-21T02:43:21;99251.94;;;-3.45;100.00
54407;BME280;40313;50.308;30.374;2023-11-21T02:45:47;99257.06;;;-3.57;100.00
54407;BME280;40313;50.308;30.374;2023-11-21T02:48:14;99242.69;;;-3.69;100.00
54407;BME280;40313;50.308;30.374;2023-11-21T02:50:41;99236.00;;;-3.84;100.00
54407;BME280;40313;50.308;30.374;2023-11-21T02:53:08;99258.06;;;-3.85;100.00
54407;BME280;40313;50.308;30.374;2023-11-21T02:55:36;99258.06;;;-3.85;100.00
54407;BME280;40313;50.308;30.374;2023-11-21T02:58:04;99259.88;;;-4.10;100.00
54407;BME280;40313;50.308;30.374;2023-11-21T03:00:31;99248.84;;;-4.27;100.00
54407;BME280;40313;50.308;30.374;2023-11-21T03:02:58;99263.19;;;-3.92;100.00
54407;BME280;40313;50.308;30.374;2023-11-21T03:05:26;99265.81;;;-4.23;100.00
54407;BME280;40313;50.308;30.374;2023-11-21T03:07:54;99263.31;;;-4.32;100.00
54407;BME280;40313;50.308;30.374;2023-11-21T03:10:21;99270.91;;;-4.23;100.00
54407;BME280;40313;50.308;30.374;2023-11-21T03:12:48;99264.78;;;-3.65;100.00
54407;BME280;40313;50.308;30.374;2023-11-21T03:15:16;99268.41;;;-4.37;100.00
54407;BME280;40313;50.308;30.374;2023-11-21T03:17:43;99265.03;;;-4.56;100.00
54407;BME280;40313;50.308;30.374;2023-11-21T03:20:12;99268.44;;;-4.57;100.00
54407;BME280;40313;50.308;30.374;2023-11-21T03:22:39;99270.13;;;-4.61;100.00
54407;BME280;40313;50.308;30.374;2023-11-21T03:25:07;99259.06;;;-4.46;100.00
54407;BME280;40313;50.308;30.374;2023-11-21T03:27:36;99248.09;;;-4.56;100.00
54407;BME280;40313;50.308;30.374;2023-11-21T03:30:05;99268.44;;;-4.49;100.00
54407;BME280;40313;50.308;30.374;2023-11-21T03:32:33;99256.56;;;-4.57;100.00
54407;BME280;40313;50.308;30.374;2023-11-21T03:35:01;99262.50;;;-4.50;100.00
54407;BME280;40313;50.308;30.374;2023-11-21T03:37:28;99260.78;;;-4.51;100.00
54407;BME280;40313;50.308;30.374;2023-11-21T03:39:55;99278.59;;;-4.42;100.00
54407;BME280;40313;50.308;30.374;2023-11-21T03:42:22;99281.16;;;-4.45;100.00
54407;BME280;40313;50.308;30.374;2023-11-21T03:44:48;99271.84;;;-4.57;100.00
54407;BME280;40313;50.308;30.374;2023-11-21T03:47:15;99263.34;;;-4.63;100.00
54407;BME280;40313;50.308;30.374;2023-11-21T03:49:43;99270.13;;;-4.61;100.00
54407;BME280;40313;50.308;30.374;2023-11-21T03:52:11;99288.78;;;-4.59;100.00
54407;BME280;40313;50.308;30.374;2023-11-21T03:54:39;99302.38;;;-4.58;100.00
54407;BME280;40313;50.308;30.374;2023-11-21T03:57:06;99296.28;;;-3.80;100.00
54407;BME280;40313;50.308;30.374;2023-11-21T03:59:34;99300.66;;;-4.41;100.00
54407;BME280;40313;50.308;30.374;2023-11-21T04:02:01;99285.41;;;-4.65;100.00
54407;BME280;40313;50.308;30.374;2023-11-21T04:04:28;99291.34;;;-4.71;100.00
54407;BME280;40313;50.308;30.374;2023-11-21T04:06:56;99286.28;;;-4.76;100.00
54407;BME280;40313;50.308;30.374;2023-11-21T04:09:23;99280.31;;;-4.82;100.00
54407;BME280;40313;50.308;30.374;2023-11-21T04:11:50;99275.22;;;-4.79;100.00
54407;BME280;40313;50.308;30.374;2023-11-21T04:14:17;99293.06;;;-4.65;100.00
54407;BME280;40313;50.308;30.374;2023-11-21T04:16:44;99299.81;;;-4.55;100.00
54407;BME280;40313;50.308;30.374;2023-11-21T04:19:11;99295.56;;;-4.25;100.00
54407;BME280;40313;50.308;30.374;2023-11-21T04:21:40;99284.53;;;-4.37;100.00
54407;BME280;40313;50.308;30.374;2023-11-21T04:24:08;99290.47;;;-4.25;100.00
54407;BME280;40313;50.308;30.374;2023-11-21T04:26:38;99267.50;;;-4.19;100.00
54407;BME280;40313;50.308;30.374;2023-11-21T04:29:05;99265.00;;;-4.24;100.00
54407;BME280;40313;50.308;30.374;2023-11-21T04:31:32;99268.34;;;-4.12;100.00
54407;BME280;40313;50.308;30.374;2023-11-21T04:33:59;99273.44;;;-4.09;100.00
54407;BME280;40313;50.308;30.374;2023-11-21T04:36:26;99270.88;;;-4.03;100.00
54407;BME280;40313;50.308;30.374;2023-11-21T04:38:53;99302.25;;;-3.84;100.00
54407;BME280;40313;50.308;30.374;2023-11-21T04:41:21;99303.03;;;-3.76;100.00
54407;BME280;40313;50.308;30.374;2023-11-21T04:43:48;99262.38;;;-4.01;100.00
54407;BME280;40313;50.308;30.374;2023-11-21T04:46:15;99297.09;;;-3.67;100.00
54407;BME280;40313;50.308;30.374;2023-11-21T04:48:42;99286.03;;;-3.69;100.00
54407;BME280;40313;50.308;30.374;2023-11-21T04:51:09;99308.94;;;-3.57;100.00
54407;BME280;40313;50.308;30.374;2023-11-21T04:53:37;99317.38;;;-3.50;100.00
54407;BME280;40313;50.308;30.374;2023-11-21T04:56:05;99307.19;;;-3.52;100.00
54407;BME280;40313;50.308;30.374;2023-11-21T04:58:33;99314.81;;;-3.41;100.00
54407;BME280;40313;50.308;30.374;2023-11-21T05:01:00;99309.69;;;-3.38;100.00
54407;BME280;40313;50.308;30.374;2023-11-21T05:03:28;99274.13;;;-3.62;100.00
54407;BME280;40313;50.308;30.374;2023-11-21T05:05:55;99323.25;;;-3.30;100.00
54407;BME280;40313;50.308;30.374;2023-11-21T05:08:22;99316.41;;;-3.26;100.00
54407;BME280;40313;50.308;30.374;2023-11-21T05:10:49;99305.38;;;-3.26;100.00
54407;BME280;40313;50.308;30.374;2023-11-21T05:13:16;99312.13;;;-3.18;100.00
54407;BME280;40313;50.308;30.374;2023-11-21T05:15:45;99322.31;;;-3.13;100.00
54407;BME280;40313;50.308;30.374;2023-11-21T05:18:12;99319.75;;;-3.15;100.00
54407;BME280;40313;50.308;30.374;2023-11-21T05:20:39;99343.50;;;-3.02;100.00
54407;BME280;40313;50.308;30.374;2023-11-21T05:23:06;99347.72;;;-2.96;100.00
54407;BME280;40313;50.308;30.374;2023-11-21T05:25:33;99332.56;;;-2.09;100.00
54407;BME280;40313;50.308;30.374;2023-11-21T05:28:00;99346.03;;;-1.92;100.00
54407;BME280;40313;50.308;30.374;2023-11-21T05:30:28;99356.94;;;-2.72;100.00
54407;BME280;40313;50.308;30.374;2023-11-21T05:32:59;99372.31;;;-2.81;100.00
54407;BME280;40313;50.308;30.374;2023-11-21T05:35:25;99367.25;;;-2.84;100.00
54407;BME280;40313;50.308;30.374;2023-11-21T05:37:52;99373.19;;;-2.85;100.00
54407;BME280;40313;50.308;30.374;2023-11-21T05:40:19;99374.03;;;-2.86;100.00
54407;BME280;40313;50.308;30.374;2023-11-21T05:42:47;99375.72;;;-2.81;100.00
54407;BME280;40313;50.308;30.374;2023-11-21T05:45:14;99373.19;;;-2.84;100.00
54407;BME280;40313;50.308;30.374;2023-11-21T05:47:44;99361.25;;;-2.83;100.00
54407;BME280;40313;50.308;30.374;2023-11-21T05:50:13;99365.47;;;-2.73;100.00
54407;BME280;40313;50.308;30.374;2023-11-21T05:52:41;99356.91;;;-2.69;100.00
54407;BME280;40313;50.308;30.374;2023-11-21T05:55:11;99356.84;;;-2.59;100.00
54407;BME280;40313;50.308;30.374;2023-11-21T05:57:39;99357.72;;;-2.62;100.00
54407;BME280;40313;50.308;30.374;2023-11-21T06:00:08;99378.09;;;-2.51;100.00
54407;BME280;40313;50.308;30.374;2023-11-21T06:02:43;99400.09;;;-2.35;100.00
54407;BME280;40313;50.308;30.374;2023-11-21T06:05:12;99383.84;;;-2.28;100.00
54407;BME280;40313;50.308;30.374;2023-11-21T06:07:39;99387.19;;;-2.21;100.00
54407;BME280;40313;50.308;30.374;2023-11-21T06:10:07;99391.41;;;-2.14;100.00
54407;BME280;40313;50.308;30.374;2023-11-21T06:12:38;99372.69;;;-2.17;100.00
54407;BME280;40313;50.308;30.374;2023-11-21T06:15:06;99392.13;;;-2.01;100.00
54407;BME280;40313;50.308;30.374;2023-11-21T06:17:34;99392.03;;;-1.92;100.00
54407;BME280;40313;50.308;30.374;2023-11-21T06:20:02;99398.81;;;-1.83;100.00
54407;BME280;40313;50.308;30.374;2023-11-21T06:22:36;99387.72;;;-1.85;100.00
54407;BME280;40313;50.308;30.374;2023-11-21T06:25:03;99389.38;;;-1.79;100.00
54407;BME280;40313;50.308;30.374;2023-11-21T06:27:31;99374.81;;;-1.71;100.00
54407;BME280;40313;50.308;30.374;2023-11-21T06:29:58;99372.44;;;-1.91;100.00
54407;BME280;40313;50.308;30.374;2023-11-21T06:32:24;99381.69;;;-1.78;100.00
54407;BME280;40313;50.308;30.374;2023-11-21T06:34:51;99380.06;;;-1.86;100.00
54407;BME280;40313;50.308;30.374;2023-11-21T06:37:19;99389.34;;;-1.76;100.00
54407;BME280;40313;50.308;30.374;2023-11-21T06:39:49;99376.69;;;-1.88;100.00
54407;BME280;40313;50.308;30.374;2023-11-21T06:42:17;99385.88;;;-1.72;100.00
54407;BME280;40313;50.308;30.374;2023-11-21T06:44:45;99370.72;;;-1.89;100.00
54407;BME280;40313;50.308;30.374;2023-11-21T06:47:11;99374.84;;;-1.74;100.00
54407;BME280;40313;50.308;30.374;2023-11-21T06:49:39;99381.63;;;-1.71;100.00
54407;BME280;40313;50.308;30.374;2023-11-21T06:52:06;99382.41;;;-1.66;100.00
54407;BME280;40313;50.308;30.374;2023-11-21T06:54:33;99390.81;;;-1.53;100.00
54407;BME280;40313;50.308;30.374;2023-11-21T06:57:02;99387.81;;;-1.16;100.00
54407;BME280;40313;50.308;30.374;2023-11-21T06:59:29;99377.66;;;-1.23;100.00
54407;BME280;40313;50.308;30.374;2023-11-21T07:01:56;99382.00;;;-1.29;100.00
54407;BME280;40313;50.308;30.374;2023-11-21T07:04:22;99386.94;;;-1.14;100.00
54407;BME280;40313;50.308;30.374;2023-11-21T07:06:51;99374.03;;;-1.08;100.00
54407;BME280;40313;50.308;30.374;2023-11-21T07:09:17;99387.34;;;-0.81;100.00
54407;BME280;40313;50.308;30.374;2023-11-21T07:11:47;99397.44;;;-0.70;100.00
54407;BME280;40313;50.308;30.374;2023-11-21T07:14:15;99400.91;;;-0.73;100.00
54407;BME280;40313;50.308;30.374;2023-11-21T07:16:45;99393.13;;;-0.66;100.00
54407;BME280;40313;50.308;30.374;2023-11-21T07:19:12;99409.09;;;-0.50;100.00
54407;BME280;40313;50.308;30.374;2023-11-21T07:21:39;99407.22;;;-0.39;100.00
54407;BME280;40313;50.308;30.374;2023-11-21T07:24:07;99409.09;;;0.04;100.00
54407;BME280;40313;50.308;30.374;2023-11-21T07:26:35;99405.13;;;-0.14;100.00
54407;BME280;40313;50.308;30.374;2023-11-21T07:29:02;99403.47;;;-0.16;100.00
54407;BME280;40313;50.308;30.374;2023-11-21T07:31:30;99399.16;;;-0.14;100.00
54407;BME280;40313;50.308;30.374;2023-11-21T07:33:59;99401.72;;;-0.14;100.00
54407;BME280;40313;50.308;30.374;2023-11-21T07:36:26;99399.06;;;-0.08;100.00
54407;BME280;40313;50.308;30.374;2023-11-21T07:38:53;99400.03;;;-0.15;100.00
54407;BME280;40313;50.308;30.374;2023-11-21T07:41:20;99392.91;;;0.02;100.00
54407;BME280;40313;50.308;30.374;2023-11-21T07:43:47;99384.25;;;0.08;100.00
54407;BME280;40313;50.308;30.374;2023-11-21T07:46:14;99387.41;;;0.22;100.00
54407;BME280;40313;50.308;30.374;2023-11-21T07:48:43;99392.38;;;0.31;100.00
54407;BME280;40313;50.308;30.374;2023-11-21T07:51:11;99397.78;;;0.16;100.00
54407;BME280;40313;50.308;30.374;2023-11-21T07:53:38;99401.38;;;0.06;100.00
54407;BME280;40313;50.308;30.374;2023-11-21T07:56:07;99388.47;;;0.12;100.00
54407;BME280;40313;50.308;30.374;2023-11-21T07:58:34;99394.03;;;0.34;100.00
54407;BME280;40313;50.308;30.374;2023-11-21T08:01:01;99397.25;;;0.45;100.00
54407;BME280;40313;50.308;30.374;2023-11-21T08:03:30;99408.47;;;0.40;100.00
54407;BME280;40313;50.308;30.374;2023-11-21T08:05:59;99410.09;;;0.44;100.00
54407;BME280;40313;50.308;30.374;2023-11-21T08:08:26;99415.63;;;0.69;100.00
54407;BME280;40313;50.308;30.374;2023-11-21T08:10:53;99413.56;;;0.86;100.00
54407;BME280;40313;50.308;30.374;2023-11-21T08:13:22;99406.56;;;0.95;100.00
54407;BME280;40313;50.308;30.374;2023-11-21T08:15:49;99404.47;;;1.12;100.00
54407;BME280;40313;50.308;30.374;2023-11-21T08:18:16;99416.13;;;1.29;100.00
54407;BME280;40313;50.308;30.374;2023-11-21T08:20:43;99416.72;;;1.40;100.00
54407;BME280;40313;50.308;30.374;2023-11-21T08:23:14;99421.44;;;1.19;100.00
54407;BME280;40313;50.308;30.374;2023-11-21T08:25:42;99411.53;;;1.02;100.00
54407;BME280;40313;50.308;30.374;2023-11-21T08:28:09;99426.44;;;1.26;100.00
54407;BME280;40313;50.308;30.374;2023-11-21T08:30:36;99419.34;;;1.37;100.00
54407;BME280;40313;50.308;30.374;2023-11-21T08:33:03;99407.66;;;1.24;100.00
54407;BME280;40313;50.308;30.374;2023-11-21T08:35:31;99415.22;;;1.30;100.00
54407;BME280;40313;50.308;30.374;2023-11-21T08:37:58;99410.06;;;1.30;100.00
54407;BME280;40313;50.308;30.374;2023-11-21T08:40:26;99417.41;;;1.08;100.00
54407;BME280;40313;50.308;30.374;2023-11-21T08:42:52;99422.34;;;1.17;100.00
54407;BME280;40313;50.308;30.374;2023-11-21T08:45:21;99410.22;;;1.24;100.00
54407;BME280;40313;50.308;30.374;2023-11-21T08:47:48;99416.88;;;1.32;100.00
54407;BME280;40313;50.308;30.374;2023-11-21T08:50:15;99397.88;;;1.40;100.00
54407;BME280;40313;50.308;30.374;2023-11-21T08:52:43;99407.78;;;1.57;100.00
54407;BME280;40313;50.308;30.374;2023-11-21T08:55:11;99410.84;;;2.07;100.00
54407;BME280;40313;50.308;30.374;2023-11-21T08:57:41;99411.16;;;1.95;100.00
54407;BME280;40313;50.308;30.374;2023-11-21T09:00:10;99411.56;;;2.12;100.00
54407;BME280;40313;50.308;30.374;2023-11-21T09:02:38;99408.84;;;2.18;100.00
54407;BME280;40313;50.308;30.374;2023-11-21T09:05:07;99408.63;;;2.28;100.00
54407;BME280;40313;50.308;30.374;2023-11-21T09:07:34;99394.34;;;2.14;100.00
54407;BME280;40313;50.308;30.374;2023-11-21T09:10:03;99402.16;;;1.77;100.00
54407;BME280;40313;50.308;30.374;2023-11-21T09:12:33;99411.56;;;1.42;100.00
54407;BME280;40313;50.308;30.374;2023-11-21T09:15:02;99405.34;;;1.50;100.00
54407;BME280;40313;50.308;30.374;2023-11-21T09:17:30;99399.06;;;1.62;100.00
54407;BME280;40313;50.308;30.374;2023-11-21T09:19:56;99408.72;;;1.52;100.00
54407;BME280;40313;50.308;30.374;2023-11-21T09:22:23;99393.00;;;2.34;100.00
54407;BME280;40313;50.308;30.374;2023-11-21T09:24:50;99390.16;;;3.04;100.00
54407;BME280;40313;50.308;30.374;2023-11-21T09:27:17;99396.31;;;2.06;100.00
54407;BME280;40313;50.308;30.374;2023-11-21T09:29:44;99401.50;;;2.04;100.00
54407;BME280;40313;50.308;30.374;2023-11-21T09:32:17;99388.53;;;1.71;100.00
54407;BME280;40313;50.308;30.374;2023-11-21T09:34:44;99402.50;;;1.99;100.00
54407;BME280;40313;50.308;30.374;2023-11-21T09:37:11;99406.44;;;2.12;100.00
54407;BME280;40313;50.308;30.374;2023-11-21T09:39:37;99389.47;;;2.05;100.00
54407;BME280;40313;50.308;30.374;2023-11-21T09:42:09;99398.84;;;1.71;100.00
54407;BME280;40313;50.308;30.374;2023-11-21T09:44:48;99405.22;;;1.55;100.00
54407;BME280;40313;50.308;30.374;2023-11-21T09:47:20;99401.69;;;1.61;100.00
54407;BME280;40313;50.308;30.374;2023-11-21T09:49:48;99401.47;;;1.68;100.00
54407;BME280;40313;50.308;30.374;2023-11-21T09:52:19;99404.72;;;2.11;100.00
54407;BME280;40313;50.308;30.374;2023-11-21T09:54:50;99393.00;;;1.65;100.00
54407;BME280;40313;50.308;30.374;2023-11-21T09:57:19;99398.16;;;1.65;100.00
54407;BME280;40313;50.308;30.374;2023-11-21T09:59:46;99397.69;;;1.85;100.00
54407;BME280;40313;50.308;30.374;2023-11-21T10:02:17;99400.63;;;2.04;100.00
54407;BME280;40313;50.308;30.374;2023-11-21T10:04:47;99397.34;;;1.63;100.00
54407;BME280;40313;50.308;30.374;2023-11-21T10:07:17;99390.00;;;1.83;100.00
54407;BME280;40313;50.308;30.374;2023-11-21T10:09:45;99390.22;;;1.74;100.00
54407;BME280;40313;50.308;30.374;2023-11-21T10:12:15;99386.44;;;1.89;100.00
54407;BME280;40313;50.308;30.374;2023-11-21T10:14:42;99379.13;;;2.06;100.00
54407;BME280;40313;50.308;30.374;2023-11-21T10:17:10;99391.56;;;2.23;100.00
54407;BME280;40313;50.308;30.374;2023-11-21T10:19:39;99387.75;;;2.37;100.00
54407;BME280;40313;50.308;30.374;2023-11-21T10:22:07;99384.81;;;2.51;100.00
54407;BME280;40313;50.308;30.374;2023-11-21T10:24:35;99388.13;;;2.56;100.00
54407;BME280;40313;50.308;30.374;2023-11-21T10:27:03;99369.97;;;2.61;100.00
54407;BME280;40313;50.308;30.374;2023-11-21T10:29:30;99390.09;;;2.78;100.00
54407;BME280;40313;50.308;30.374;2023-11-21T10:32:02;99380.13;;;2.65;100.00
54407;BME280;40313;50.308;30.374;2023-11-21T10:34:29;99375.63;;;2.42;100.00
54407;BME280;40313;50.308;30.374;2023-11-21T10:36:56;99380.94;;;1.67;100.00
54407;BME280;40313;50.308;30.374;2023-11-21T10:39:25;99389.28;;;2.11;100.00
54407;BME280;40313;50.308;30.374;2023-11-21T10:41:56;99401.91;;;1.87;100.00
54407;BME280;40313;50.308;30.374;2023-11-21T10:44:23;99401.13;;;2.18;100.00
54407;BME280;40313;50.308;30.374;2023-11-21T10:46:51;99400.53;;;2.41;100.00
54407;BME280;40313;50.308;30.374;2023-11-21T10:49:21;99396.19;;;2.44;100.00
54407;BME280;40313;50.308;30.374;2023-11-21T10:51:50;99385.66;;;2.51;100.00
54407;BME280;40313;50.308;30.374;2023-11-21T10:54:22;99399.94;;;2.63;100.00
54407;BME280;40313;50.308;30.374;2023-11-21T10:56:53;99383.34;;;2.73;100.00
54407;BME280;40313;50.308;30.374;2023-11-21T10:59:20;99388.16;;;2.84;100.00
54407;BME280;40313;50.308;30.374;2023-11-21T11:01:50;99401.63;;;2.94;100.00
54407;BME280;40313;50.308;30.374;2023-11-21T11:04:19;99399.97;;;2.91;100.00
54407;BME280;40313;50.308;30.374;2023-11-21T11:06:51;99413.78;;;2.90;100.00
54407;BME280;40313;50.308;30.374;2023-11-21T11:09:21;99410.38;;;2.88;100.00
54407;BME280;40313;50.308;30.374;2023-11-21T11:11:50;99409.97;;;2.41;100.00
54407;BME280;40313;50.308;30.374;2023-11-21T11:14:18;99411.41;;;2.18;100.00
54407;BME280;40313;50.308;30.374;2023-11-21T11:16:53;99401.50;;;2.03;100.00
54407;BME280;40313;50.308;30.374;2023-11-21T11:19:20;99405.19;;;2.27;100.00
54407;BME280;40313;50.308;30.374;2023-11-21T11:21:53;99409.88;;;2.44;100.00
54407;BME280;40313;50.308;30.374;2023-11-21T11:24:57;99421.00;;;2.46;100.00
54407;BME280;40313;50.308;30.374;2023-11-21T11:27:37;99416.50;;;2.53;100.00
54407;BME280;40313;50.308;30.374;2023-11-21T11:30:14;99411.19;;;2.28;100.00
54407;BME280;40313;50.308;30.374;2023-11-21T11:32:52;99419.09;;;1.85;100.00
54407;BME280;40313;50.308;30.374;2023-11-21T11:35:26;99410.09;;;2.03;100.00
54407;BME280;40313;50.308;30.374;2023-11-21T11:37:55;99428.59;;;2.18;100.00
54407;BME280;40313;50.308;30.374;2023-11-21T11:40:25;99422.53;;;2.20;100.00
54407;BME280;40313;50.308;30.374;2023-11-21T11:43:06;99410.28;;;2.29;100.00
54407;BME280;40313;50.308;30.374;2023-11-21T11:45:34;99410.28;;;2.30;100.00
54407;BME280;40313;50.308;30.374;2023-11-21T11:48:06;99411.66;;;2.42;100.00
54407;BME280;40313;50.308;30.374;2023-11-21T11:50:33;99410.22;;;2.32;100.00
54407;BME280;40313;50.308;30.374;2023-11-21T11:53:12;99415.69;;;2.52;100.00
54407;BME280;40313;50.308;30.374;2023-11-21T11:55:40;99410.97;;;2.35;100.00
54407;BME280;40313;50.308;30.374;2023-11-21T11:58:09;99413.38;;;2.43;100.00
54407;BME280;40313;50.308;30.374;2023-11-21T12:00:37;99408.44;;;2.34;100.00
54407;BME280;40313;50.308;30.374;2023-11-21T12:03:06;99414.13;;;2.78;100.00
54407;BME280;40313;50.308;30.374;2023-11-21T12:05:35;99421.09;;;2.43;100.00
54407;BME280;40313;50.308;30.374;2023-11-21T12:08:05;99425.31;;;2.44;100.00
54407;BME280;40313;50.308;30.374;2023-11-21T12:10:34;99414.56;;;2.30;100.00
54407;BME280;40313;50.308;30.374;2023-11-21T12:13:05;99418.56;;;2.07;100.00
54407;BME280;40313;50.308;30.374;2023-11-21T12:15:34;99422.59;;;2.17;100.00
54407;BME280;40313;50.308;30.374;2023-11-21T12:18:02;99436.44;;;2.13;100.00
54407;BME280;40313;50.308;30.374;2023-11-21T12:20:31;99436.34;;;1.82;100.00
54407;BME280;40313;50.308;30.374;2023-11-21T12:22:59;99438.84;;;1.85;100.00
54407;BME280;40313;50.308;30.374;2023-11-21T12:25:27;99445.72;;;1.84;100.00
54407;BME280;40313;50.308;30.374;2023-11-21T12:27:55;99449.84;;;1.52;100.00
54407;BME280;40313;50.308;30.374;2023-11-21T12:30:24;99464.22;;;1.61;100.00
54407;BME280;40313;50.308;30.374;2023-11-21T12:32:55;99464.09;;;1.67;100.00
54407;BME280;40313;50.308;30.374;2023-11-21T12:35:24;99450.25;;;1.71;100.00
54407;BME280;40313;50.308;30.374;2023-11-21T12:37:53;99462.25;;;1.72;100.00
54407;BME280;40313;50.308;30.374;2023-11-21T12:40:22;99452.69;;;1.79;100.00
54407;BME280;40313;50.308;30.374;2023-11-21T12:42:51;99475.00;;;1.77;100.00
54407;BME280;40313;50.308;30.374;2023-11-21T12:45:20;99480.03;;;1.83;100.00
54407;BME280;40313;50.308;30.374;2023-11-21T12:47:49;99474.84;;;1.85;100.00